Loco, Georgia
Current Conditions -  °F | °C
As of 1:15 PM on Thursday 23 Oct 2014 (Local Time) from KHQU Reporting Station
Clear Clear  
Wind Chill: 66°   Ceiling: Unl
Heat Index: 66°   Visibility: 10mi
Dew Point: 48°   Wind: 0mph
Humidity: 53%   Direction: NA
Pressure: 30.12"   Gusts: NA
Location:  33.7816°N, 82.4511°W
Report Text: KHQU 231715Z AUTO 00000KT 10SM CLR 19/09 A3012 RMK AO1 T01880089
Loading
Personal Weather Stations






























Interactive Weather Map
Tropical Storm Tracking
New forecast layout! Learn more

10-Day Weather Forecast

Advertisements
Track Severe Weather on mobile